createdAt,value
2022-07-29T00:00:37.577Z,101178.00
2022-07-29T00:03:14.859Z,101160.00
2022-07-29T00:05:48.403Z,101182.00
2022-07-29T00:08:21.356Z,101174.00
2022-07-29T00:10:54.384Z,101167.00
2022-07-29T00:13:32.571Z,101174.00
2022-07-29T00:16:04.804Z,101177.00
2022-07-29T00:18:35.530Z,101176.00
2022-07-29T00:21:12.839Z,101170.00
2022-07-29T00:23:46.338Z,101167.00
2022-07-29T00:26:19.756Z,101176.00
2022-07-29T00:28:58.665Z,101180.00
2022-07-29T00:31:27.364Z,101169.00
2022-07-29T00:34:00.435Z,101173.00
2022-07-29T00:36:34.104Z,101164.00
2022-07-29T00:39:07.451Z,101160.00
2022-07-29T00:41:40.381Z,101149.00
2022-07-29T00:44:13.576Z,101164.00
2022-07-29T00:46:46.944Z,101152.00
2022-07-29T00:49:19.735Z,101148.00
2022-07-29T00:51:55.681Z,101136.00
2022-07-29T00:54:29.669Z,101144.00
2022-07-29T00:57:06.588Z,101138.00
2022-07-29T00:59:39.472Z,101144.00
2022-07-29T01:02:12.395Z,101145.00
2022-07-29T01:04:45.556Z,101138.00
2022-07-29T01:07:19.604Z,101140.00
2022-07-29T01:09:52.901Z,101146.00
2022-07-29T01:12:27.732Z,101148.00
2022-07-29T01:15:00.948Z,101147.00
2022-07-29T01:17:38.335Z,101146.00
2022-07-29T01:20:18.917Z,101143.00
2022-07-29T01:23:10.752Z,101150.00
2022-07-29T01:25:56.172Z,101140.00
2022-07-29T01:28:48.135Z,101151.00
2022-07-29T01:31:25.029Z,101154.00
2022-07-29T01:33:59.117Z,101149.00
2022-07-29T01:36:37.027Z,101155.00
2022-07-29T01:39:38.029Z,101149.00
2022-07-29T01:42:38.079Z,101160.00
2022-07-29T01:45:38.530Z,101166.00
2022-07-29T01:48:28.514Z,101163.00
2022-07-29T01:51:21.061Z,101162.00
2022-07-29T01:54:01.515Z,101177.00
2022-07-29T01:56:36.540Z,101168.00
2022-07-29T01:59:11.737Z,101167.00
2022-07-29T02:01:46.248Z,101175.00
2022-07-29T02:04:28.886Z,101176.00
2022-07-29T02:06:56.405Z,101168.00
2022-07-29T02:09:30.721Z,101170.00
2022-07-29T02:12:05.384Z,101176.00
2022-07-29T02:14:40.001Z,101186.00
2022-07-29T02:17:14.618Z,101182.00
2022-07-29T02:19:49.505Z,101178.00
2022-07-29T02:22:25.538Z,101181.00
2022-07-29T02:25:00.918Z,101184.00
2022-07-29T02:27:34.995Z,101184.00
2022-07-29T02:30:09.469Z,101196.00
2022-07-29T02:32:44.370Z,101184.00
2022-07-29T02:35:19.725Z,101188.00
2022-07-29T02:37:54.870Z,101190.00
2022-07-29T02:40:28.012Z,101185.00
2022-07-29T02:43:01.773Z,101196.00
2022-07-29T02:45:39.952Z,101197.00
2022-07-29T02:48:15.256Z,101189.00
2022-07-29T02:50:50.215Z,101188.00
2022-07-29T02:53:25.003Z,101189.00
2022-07-29T02:56:03.443Z,101189.00
2022-07-29T02:58:43.721Z,101186.00
2022-07-29T03:01:26.598Z,101186.00
2022-07-29T03:04:00.018Z,101194.00
2022-07-29T03:06:38.540Z,101188.00
2022-07-29T03:09:12.585Z,101192.00
2022-07-29T03:11:50.191Z,101187.00
2022-07-29T03:14:22.299Z,101186.00
2022-07-29T03:16:55.472Z,101186.00
2022-07-29T03:19:28.252Z,101195.00
2022-07-29T03:22:06.510Z,101202.00
2022-07-29T03:24:40.990Z,101206.00
2022-07-29T03:27:13.715Z,101209.00
2022-07-29T03:29:49.914Z,101206.00
2022-07-29T03:32:25.323Z,101204.00
2022-07-29T03:35:02.037Z,101196.00
2022-07-29T03:37:36.170Z,101208.00
2022-07-29T03:40:11.163Z,101201.00
2022-07-29T03:42:44.889Z,101206.00
2022-07-29T03:45:19.751Z,101203.00
2022-07-29T03:48:01.129Z,101197.00
2022-07-29T03:50:35.235Z,101197.00
2022-07-29T03:53:08.203Z,101205.00
2022-07-29T03:55:42.654Z,101203.00
2022-07-29T03:58:17.335Z,101215.00
2022-07-29T04:00:55.317Z,101218.00
2022-07-29T04:03:28.246Z,101224.00
2022-07-29T04:06:12.087Z,101224.00
2022-07-29T04:08:44.903Z,101226.00
2022-07-29T04:11:18.307Z,101242.00
2022-07-29T04:13:51.262Z,101245.00
2022-07-29T04:16:24.585Z,101247.00
2022-07-29T04:18:57.465Z,101236.00
2022-07-29T04:21:30.357Z,101238.00
2022-07-29T04:24:03.478Z,101244.00
2022-07-29T04:26:37.286Z,101246.00
2022-07-29T04:29:10.273Z,101249.00
2022-07-29T04:31:43.063Z,101255.00
2022-07-29T04:34:17.365Z,101248.00
2022-07-29T04:36:50.302Z,101251.00
2022-07-29T04:39:23.405Z,101260.00
2022-07-29T04:41:56.513Z,101260.00
2022-07-29T04:44:30.552Z,101261.00
2022-07-29T04:47:04.509Z,101264.00
2022-07-29T04:49:37.457Z,101271.00
2022-07-29T04:52:10.658Z,101265.00
2022-07-29T04:54:43.527Z,101275.00
2022-07-29T04:57:18.992Z,101267.00
2022-07-29T04:59:50.728Z,101271.00
2022-07-29T05:02:23.692Z,101281.00
2022-07-29T05:04:56.454Z,101287.00
2022-07-29T05:07:29.383Z,101291.00
2022-07-29T05:10:02.213Z,101293.00
2022-07-29T05:12:34.870Z,101294.00
2022-07-29T05:15:08.269Z,101287.00
2022-07-29T05:17:41.304Z,101293.00
2022-07-29T05:20:14.536Z,101290.00
2022-07-29T05:22:47.447Z,101290.00
2022-07-29T05:25:20.567Z,101288.00
2022-07-29T05:27:56.062Z,101290.00
2022-07-29T05:30:29.074Z,101290.00
2022-07-29T05:33:01.991Z,101295.00
2022-07-29T05:35:34.899Z,101295.00
2022-07-29T05:38:07.748Z,101304.00
2022-07-29T05:40:45.031Z,101300.00
2022-07-29T05:43:18.140Z,101302.00
2022-07-29T05:45:51.083Z,101310.00
2022-07-29T05:48:24.101Z,101304.00
2022-07-29T05:50:57.272Z,101304.00
2022-07-29T05:53:30.272Z,101306.00
2022-07-29T05:56:08.786Z,101309.00
2022-07-29T05:58:41.807Z,101314.00
2022-07-29T06:01:14.781Z,101312.00
2022-07-29T06:03:51.965Z,101313.00
2022-07-29T06:06:25.435Z,101320.00
2022-07-29T06:08:58.425Z,101326.00
2022-07-29T06:11:31.527Z,101315.00
2022-07-29T06:14:07.478Z,101319.00
2022-07-29T06:16:40.767Z,101317.00
2022-07-29T06:19:13.769Z,101327.00
2022-07-29T06:21:50.844Z,101325.00
2022-07-29T06:24:23.923Z,101325.00
2022-07-29T06:26:57.206Z,101321.00
2022-07-29T06:29:30.474Z,101338.00
2022-07-29T06:32:03.402Z,101338.00
2022-07-29T06:34:36.436Z,101332.00
2022-07-29T06:37:17.250Z,101340.00
2022-07-29T06:39:50.563Z,101333.00
2022-07-29T06:42:23.579Z,101339.00
2022-07-29T06:44:56.534Z,101344.00
2022-07-29T06:47:29.577Z,101342.00
2022-07-29T06:50:02.760Z,101341.00
2022-07-29T06:52:36.879Z,101345.00
2022-07-29T06:55:10.393Z,101347.00
2022-07-29T06:57:44.505Z,101339.00
2022-07-29T07:00:18.227Z,101352.00
2022-07-29T07:02:51.341Z,101345.00
2022-07-29T07:05:24.619Z,101350.00
2022-07-29T07:07:57.629Z,101349.00
2022-07-29T07:10:30.487Z,101350.00
2022-07-29T07:13:08.389Z,101355.00
2022-07-29T07:15:42.072Z,101343.00
2022-07-29T07:18:15.077Z,101355.00
2022-07-29T07:20:48.405Z,101366.00
2022-07-29T07:23:21.325Z,101365.00
2022-07-29T07:25:54.137Z,101351.00
2022-07-29T07:28:27.509Z,101361.00
2022-07-29T07:31:00.544Z,101371.00
2022-07-29T07:33:33.485Z,101374.00
2022-07-29T07:36:10.616Z,101370.00
2022-07-29T07:38:43.803Z,101370.00
2022-07-29T07:41:16.757Z,101364.00
2022-07-29T07:43:49.637Z,101369.00
2022-07-29T07:46:22.784Z,101369.00
2022-07-29T07:48:59.893Z,101372.00
2022-07-29T07:51:32.827Z,101373.00
2022-07-29T07:54:05.769Z,101369.00
2022-07-29T07:56:38.682Z,101372.00
2022-07-29T07:59:11.707Z,101378.00
2022-07-29T08:01:50.449Z,101369.00
2022-07-29T08:04:22.220Z,101373.00
2022-07-29T08:06:53.644Z,101377.00
2022-07-29T08:09:29.889Z,101381.00
2022-07-29T08:12:06.345Z,101382.00
2022-07-29T08:14:39.326Z,101382.00
2022-07-29T08:17:12.583Z,101387.00
2022-07-29T08:19:48.404Z,101388.00
2022-07-29T08:22:21.085Z,101380.00
2022-07-29T08:24:57.189Z,101397.00
2022-07-29T08:27:43.561Z,101393.00
2022-07-29T08:30:06.399Z,101400.00
2022-07-29T08:32:55.451Z,101402.00
2022-07-29T08:35:13.962Z,101401.00
2022-07-29T08:37:46.805Z,101399.00
2022-07-29T08:40:19.940Z,101402.00
2022-07-29T08:42:53.760Z,101415.00
2022-07-29T08:45:28.063Z,101420.00
2022-07-29T08:48:04.799Z,101426.00
2022-07-29T08:50:40.478Z,101426.00
2022-07-29T08:53:17.359Z,101430.00
2022-07-29T08:55:52.487Z,101433.00
2022-07-29T08:58:26.552Z,101440.00
2022-07-29T09:01:00.545Z,101436.00
2022-07-29T09:03:37.875Z,101432.00
2022-07-29T09:06:10.888Z,101436.00
2022-07-29T09:08:43.954Z,101439.00
2022-07-29T09:11:17.432Z,101445.00
2022-07-29T09:13:51.392Z,101444.00
2022-07-29T09:16:50.971Z,101447.00
2022-07-29T09:18:58.474Z,101442.00
2022-07-29T09:21:53.207Z,101434.00
2022-07-29T09:24:26.128Z,101441.00
2022-07-29T09:26:58.881Z,101443.00
2022-07-29T09:29:35.830Z,101431.00
2022-07-29T09:32:07.557Z,101433.00
2022-07-29T09:34:41.108Z,101441.00
2022-07-29T09:37:14.399Z,101440.00
2022-07-29T09:39:50.199Z,101446.00
2022-07-29T09:42:24.724Z,101439.00
2022-07-29T09:45:01.486Z,101434.00
2022-07-29T09:47:52.740Z,101441.00
2022-07-29T09:50:29.405Z,101431.00
2022-07-29T09:53:02.407Z,101436.00
2022-07-29T09:55:35.905Z,101434.00
2022-07-29T09:58:24.629Z,101439.00
2022-07-29T10:00:58.313Z,101442.00
2022-07-29T10:03:31.833Z,101441.00
2022-07-29T10:06:16.391Z,101435.00
2022-07-29T10:08:49.134Z,101446.00
2022-07-29T10:11:25.263Z,101442.00
2022-07-29T10:13:59.307Z,101442.00
2022-07-29T10:16:33.830Z,101453.00
2022-07-29T10:19:06.817Z,101436.00
2022-07-29T10:21:40.597Z,101427.00
2022-07-29T10:24:14.894Z,101433.00
2022-07-29T10:26:49.459Z,101432.00
2022-07-29T10:29:22.268Z,101435.00
2022-07-29T10:32:06.363Z,101431.00
2022-07-29T10:35:00.816Z,101428.00
2022-07-29T10:37:55.114Z,101427.00
2022-07-29T10:41:03.864Z,101430.00
2022-07-29T10:43:42.278Z,101448.00
2022-07-29T10:46:16.310Z,101454.00
2022-07-29T10:49:11.231Z,101446.00
2022-07-29T10:52:10.812Z,101453.00
2022-07-29T10:54:46.678Z,101457.00
2022-07-29T10:57:25.757Z,101461.00
2022-07-29T11:00:13.563Z,101464.00
2022-07-29T11:02:50.506Z,101466.00
2022-07-29T11:05:39.821Z,101460.00
2022-07-29T11:08:26.172Z,101479.00
2022-07-29T11:10:58.781Z,101477.00
2022-07-29T11:13:53.372Z,101475.00
2022-07-29T11:16:30.824Z,101486.00
2022-07-29T11:19:26.253Z,101478.00
2022-07-29T11:21:58.472Z,101487.00
2022-07-29T11:24:31.954Z,101490.00
2022-07-29T11:32:35.183Z,101476.00
2022-07-29T11:35:17.451Z,101480.00
2022-07-29T11:37:52.275Z,101480.00
2022-07-29T11:40:22.684Z,101473.00
2022-07-29T11:42:55.855Z,101482.00
2022-07-29T11:45:42.666Z,101484.00
2022-07-29T11:48:28.069Z,101486.00
2022-07-29T11:50:44.471Z,101481.00
2022-07-29T11:53:18.424Z,101479.00
2022-07-29T11:55:52.706Z,101471.00
2022-07-29T11:58:28.982Z,101472.00
2022-07-29T12:01:04.871Z,101478.00
2022-07-29T12:03:38.206Z,101474.00
2022-07-29T12:06:21.061Z,101468.00
2022-07-29T12:07:01.386Z,101488.00
2022-07-29T12:08:52.955Z,101466.00
2022-07-29T12:11:25.748Z,101475.00
2022-07-29T12:13:58.949Z,101474.00
2022-07-29T12:16:41.476Z,101473.00
2022-07-29T12:19:14.432Z,101481.00
2022-07-29T12:21:59.462Z,101473.00
2022-07-29T12:24:33.285Z,101475.00
2022-07-29T12:27:07.267Z,101479.00
2022-07-29T12:29:41.232Z,101477.00
2022-07-29T12:32:19.904Z,101480.00
2022-07-29T12:34:53.207Z,101473.00
2022-07-29T12:37:38.987Z,101483.00
2022-07-29T12:40:04.619Z,101481.00
2022-07-29T12:42:38.312Z,101488.00
2022-07-29T12:45:12.090Z,101490.00
2022-07-29T12:48:00.471Z,101484.00
2022-07-29T12:50:34.677Z,101486.00
2022-07-29T12:53:19.728Z,101486.00
2022-07-29T12:55:55.398Z,101488.00
2022-07-29T12:58:49.411Z,101484.00
2022-07-29T13:01:22.468Z,101494.00
2022-07-29T13:04:07.089Z,101488.00
2022-07-29T13:06:41.998Z,101493.00
2022-07-29T13:09:20.237Z,101491.00
2022-07-29T13:11:59.040Z,101494.00
2022-07-29T13:14:40.294Z,101498.00
2022-07-29T13:17:15.035Z,101497.00
2022-07-29T13:20:13.602Z,101497.00
2022-07-29T13:22:50.961Z,101494.00
2022-07-29T13:25:34.741Z,101491.00
2022-07-29T13:28:07.788Z,101484.00
2022-07-29T13:30:44.486Z,101482.00
2022-07-29T13:33:15.011Z,101484.00
2022-07-29T13:35:47.806Z,101482.00
2022-07-29T13:38:20.679Z,101475.00
2022-07-29T13:40:53.637Z,101468.00
2022-07-29T13:43:26.770Z,101459.00
2022-07-29T13:45:59.753Z,101452.00
2022-07-29T13:48:32.771Z,101463.00
2022-07-29T13:51:05.587Z,101459.00
2022-07-29T13:53:42.364Z,101450.00
2022-07-29T13:56:15.149Z,101452.00
2022-07-29T13:58:47.917Z,101452.00
2022-07-29T14:01:20.758Z,101447.00
2022-07-29T14:03:53.830Z,101455.00
2022-07-29T14:06:27.818Z,101442.00
2022-07-29T14:09:01.845Z,101441.00
2022-07-29T14:11:34.472Z,101447.00
2022-07-29T14:14:07.261Z,101456.00
2022-07-29T14:16:43.797Z,101449.00
2022-07-29T14:19:14.285Z,101448.00
2022-07-29T14:21:47.289Z,101444.00
2022-07-29T14:24:23.083Z,101454.00
2022-07-29T14:26:54.445Z,101444.00
2022-07-29T14:29:37.083Z,101443.00
2022-07-29T14:32:02.176Z,101446.00
2022-07-29T14:34:35.553Z,101439.00
2022-07-29T14:37:09.329Z,101442.00
2022-07-29T14:39:43.271Z,101450.00
2022-07-29T14:42:16.853Z,101445.00
2022-07-29T14:44:50.548Z,101451.00
2022-07-29T14:47:24.619Z,101441.00
2022-07-29T14:49:57.373Z,101435.00
2022-07-29T14:52:30.382Z,101431.00
2022-07-29T14:55:03.127Z,101435.00
2022-07-29T14:57:35.939Z,101436.00
2022-07-29T15:00:10.279Z,101435.00
2022-07-29T15:03:00.880Z,101446.00
2022-07-29T15:05:21.040Z,101432.00
2022-07-29T15:07:53.927Z,101424.00
2022-07-29T15:10:27.119Z,101426.00
2022-07-29T15:13:02.440Z,101420.00
2022-07-29T15:15:35.194Z,101418.00
2022-07-29T15:18:14.607Z,101414.00
2022-07-29T15:20:49.444Z,101415.00
2022-07-29T15:23:22.188Z,101415.00
2022-07-29T15:25:54.985Z,101415.00
2022-07-29T15:28:27.795Z,101410.00
2022-07-29T15:31:01.083Z,101416.00
2022-07-29T15:33:33.777Z,101419.00
2022-07-29T15:36:07.598Z,101428.00
2022-07-29T15:38:41.775Z,101414.00
2022-07-29T15:41:15.823Z,101409.00
2022-07-29T15:43:53.449Z,101409.00
2022-07-29T15:46:43.102Z,101397.00
2022-07-29T15:49:15.971Z,101399.00
2022-07-29T15:51:54.890Z,101399.00
2022-07-29T15:54:26.716Z,101398.00
2022-07-29T15:57:00.425Z,101404.00
2022-07-29T15:59:33.548Z,101398.00
2022-07-29T16:02:06.798Z,101396.00
2022-07-29T16:04:39.606Z,101394.00
2022-07-29T16:07:12.419Z,101400.00
2022-07-29T16:09:50.749Z,101398.00
2022-07-29T16:12:20.608Z,101402.00
2022-07-29T16:14:53.862Z,101394.00
2022-07-29T16:17:26.386Z,101386.00
2022-07-29T16:19:59.570Z,101392.00
2022-07-29T16:22:32.459Z,101390.00
2022-07-29T16:25:05.347Z,101383.00
2022-07-29T16:27:42.396Z,101386.00
2022-07-29T16:30:15.830Z,101397.00
2022-07-29T16:32:48.786Z,101387.00
2022-07-29T16:35:21.885Z,101392.00
2022-07-29T16:37:54.750Z,101382.00
2022-07-29T16:40:32.159Z,101379.00
2022-07-29T16:43:05.113Z,101382.00
2022-07-29T16:45:45.770Z,101378.00
2022-07-29T16:48:13.432Z,101371.00
2022-07-29T16:50:47.253Z,101374.00
2022-07-29T16:53:20.217Z,101367.00
2022-07-29T16:55:53.098Z,101376.00
2022-07-29T16:58:27.239Z,101371.00
2022-07-29T17:01:00.275Z,101370.00
2022-07-29T17:03:33.220Z,101371.00
2022-07-29T17:06:05.954Z,101365.00
2022-07-29T17:08:38.839Z,101372.00
2022-07-29T17:11:11.707Z,101375.00
2022-07-29T17:13:44.455Z,101374.00
2022-07-29T17:16:18.632Z,101376.00
2022-07-29T17:18:55.768Z,101374.00
2022-07-29T17:21:28.785Z,101374.00
2022-07-29T17:24:01.726Z,101374.00
2022-07-29T17:26:34.665Z,101367.00
2022-07-29T17:29:07.699Z,101369.00
2022-07-29T17:31:40.775Z,101369.00
2022-07-29T17:34:14.380Z,101376.00
2022-07-29T17:36:51.480Z,101374.00
2022-07-29T17:39:24.694Z,101376.00
2022-07-29T17:41:57.617Z,101377.00
2022-07-29T17:44:30.541Z,101376.00
2022-07-29T17:47:16.098Z,101381.00
2022-07-29T17:49:42.555Z,101383.00
2022-07-29T17:52:15.562Z,101371.00
2022-07-29T17:54:52.844Z,101368.00
2022-07-29T17:57:30.229Z,101373.00
2022-07-29T18:00:03.547Z,101363.00
2022-07-29T18:02:38.848Z,101365.00
2022-07-29T18:05:12.164Z,101371.00
2022-07-29T18:07:45.170Z,101368.00
2022-07-29T18:10:18.079Z,101370.00
2022-07-29T18:12:51.525Z,101356.00
2022-07-29T18:15:24.834Z,101362.00
2022-07-29T18:17:58.145Z,101365.00
2022-07-29T18:20:35.271Z,101359.00
2022-07-29T18:23:08.246Z,101358.00
2022-07-29T18:25:45.585Z,101355.00
2022-07-29T18:28:18.512Z,101356.00
2022-07-29T18:30:51.356Z,101356.00
2022-07-29T18:33:24.375Z,101358.00
2022-07-29T18:36:10.675Z,101351.00
2022-07-29T18:38:31.804Z,101350.00
2022-07-29T18:41:04.875Z,101346.00
2022-07-29T18:43:37.689Z,101348.00
2022-07-29T18:46:10.778Z,101336.00
2022-07-29T18:48:44.747Z,101343.00
2022-07-29T18:51:17.747Z,101358.00
2022-07-29T18:53:51.108Z,101350.00
2022-07-29T18:56:24.039Z,101358.00
2022-07-29T18:58:57.076Z,101352.00
2022-07-29T19:01:31.886Z,101355.00
2022-07-29T19:04:04.655Z,101346.00
2022-07-29T19:06:37.609Z,101350.00
2022-07-29T19:09:13.621Z,101351.00
2022-07-29T19:11:46.467Z,101358.00
2022-07-29T19:14:19.700Z,101352.00
2022-07-29T19:16:58.220Z,101357.00
2022-07-29T19:19:31.182Z,101357.00
2022-07-29T19:22:04.110Z,101360.00
2022-07-29T19:24:36.945Z,101375.00
2022-07-29T19:27:09.664Z,101366.00
2022-07-29T19:29:42.411Z,101374.00
2022-07-29T19:32:25.098Z,101383.00
2022-07-29T19:34:51.285Z,101370.00
2022-07-29T19:37:24.305Z,101376.00
2022-07-29T19:39:57.569Z,101370.00
2022-07-29T19:42:30.428Z,101376.00
2022-07-29T19:45:03.337Z,101373.00
2022-07-29T19:47:38.269Z,101366.00
2022-07-29T19:50:12.157Z,101367.00
2022-07-29T19:52:44.913Z,101363.00
2022-07-29T19:55:18.771Z,101364.00
2022-07-29T19:57:53.113Z,101368.00
2022-07-29T20:00:26.937Z,101371.00
2022-07-29T20:03:00.158Z,101374.00
2022-07-29T20:05:32.936Z,101382.00
2022-07-29T20:08:06.759Z,101387.00
2022-07-29T20:10:39.534Z,101391.00
2022-07-29T20:13:12.380Z,101386.00
2022-07-29T20:15:45.150Z,101385.00
2022-07-29T20:18:17.855Z,101383.00
2022-07-29T20:20:51.484Z,101398.00
2022-07-29T20:23:25.106Z,101398.00
2022-07-29T20:25:57.877Z,101402.00
2022-07-29T20:28:30.626Z,101398.00
2022-07-29T20:31:03.694Z,101403.00
2022-07-29T20:33:36.742Z,101405.00
2022-07-29T20:36:10.001Z,101404.00
2022-07-29T20:38:42.878Z,101406.00
2022-07-29T20:41:15.933Z,101410.00
2022-07-29T20:43:54.737Z,101410.00
2022-07-29T20:46:27.879Z,101408.00
2022-07-29T20:49:00.638Z,101416.00
2022-07-29T20:51:43.749Z,101416.00
2022-07-29T20:54:07.468Z,101424.00
2022-07-29T20:56:40.323Z,101423.00
2022-07-29T20:59:13.210Z,101426.00
2022-07-29T21:01:46.242Z,101428.00
2022-07-29T21:04:19.110Z,101419.00
2022-07-29T21:06:55.982Z,101429.00
2022-07-29T21:09:28.802Z,101426.00
2022-07-29T21:12:02.401Z,101426.00
2022-07-29T21:14:40.023Z,101435.00
2022-07-29T21:17:13.357Z,101428.00
2022-07-29T21:19:46.554Z,101437.00
2022-07-29T21:22:20.581Z,101427.00
2022-07-29T21:24:53.491Z,101428.00
2022-07-29T21:27:43.360Z,101430.00
2022-07-29T21:30:16.731Z,101431.00
2022-07-29T21:32:49.619Z,101430.00
2022-07-29T21:35:45.282Z,101433.00
2022-07-29T21:37:56.901Z,101433.00
2022-07-29T21:40:29.950Z,101429.00
2022-07-29T21:43:03.035Z,101429.00
2022-07-29T21:45:35.842Z,101422.00
2022-07-29T21:48:08.999Z,101413.00
2022-07-29T21:50:41.941Z,101407.00
2022-07-29T21:53:15.839Z,101399.00
2022-07-29T21:55:48.866Z,101401.00
2022-07-29T21:58:23.725Z,101403.00
2022-07-29T22:01:00.563Z,101399.00
2022-07-29T22:03:33.332Z,101408.00
2022-07-29T22:06:11.413Z,101413.00
2022-07-29T22:08:46.091Z,101400.00
2022-07-29T22:11:20.265Z,101411.00
2022-07-29T22:13:53.605Z,101399.00
2022-07-29T22:16:30.810Z,101402.00
2022-07-29T22:19:09.388Z,101406.00
2022-07-29T22:21:42.672Z,101413.00
2022-07-29T22:24:15.741Z,101410.00
2022-07-29T22:26:48.818Z,101398.00
2022-07-29T22:29:21.940Z,101395.00
2022-07-29T22:31:57.483Z,101395.00
2022-07-29T22:34:31.788Z,101387.00
2022-07-29T22:37:04.849Z,101386.00
2022-07-29T22:39:37.902Z,101382.00
2022-07-29T22:42:11.078Z,101379.00
2022-07-29T22:44:44.466Z,101382.00
2022-07-29T22:47:17.491Z,101374.00
2022-07-29T22:49:50.352Z,101381.00
2022-07-29T22:52:26.472Z,101380.00
2022-07-29T22:54:59.518Z,101381.00
2022-07-29T22:57:32.135Z,101384.00
2022-07-29T23:00:04.811Z,101368.00
2022-07-29T23:02:38.920Z,101366.00
2022-07-29T23:05:12.519Z,101370.00
2022-07-29T23:07:45.484Z,101356.00
2022-07-29T23:10:18.396Z,101343.00
2022-07-29T23:12:51.077Z,101338.00
2022-07-29T23:15:24.893Z,101348.00
2022-07-29T23:17:57.614Z,101341.00
2022-07-29T23:20:30.842Z,101334.00
2022-07-29T23:23:03.792Z,101334.00
2022-07-29T23:25:36.696Z,101333.00
2022-07-29T23:28:11.626Z,101324.00
2022-07-29T23:30:45.105Z,101339.00
2022-07-29T23:33:18.074Z,101318.00
2022-07-29T23:36:16.432Z,101315.00
2022-07-29T23:38:53.733Z,101307.00
2022-07-29T23:41:27.101Z,101289.00
2022-07-29T23:44:06.284Z,101284.00
2022-07-29T23:46:39.105Z,101286.00
2022-07-29T23:49:12.204Z,101275.00
2022-07-29T23:51:45.290Z,101277.00
2022-07-29T23:54:18.179Z,101270.00
2022-07-29T23:56:50.813Z,101265.00
2022-07-29T23:59:23.697Z,101273.00
